Scroll down
FLIGHT INFORMATION
PMDG Flight Operations

PFO2115

At Arrival Gate

LSZS
 BIRK
DATE: 2020-10-31
GATE:  -
GATE DEPARTURE: 21:41
TAKEOFF: 21:46
DATE: 2020-11-01
GATE:  -
LANDING: 01:36
GATE ARRIVAL: 01:43
FLIGHT DATA
Crew: 
Speed: 
472 kts
Altitude: 
40,097 ft
Stage Length: 
1,486.4 nm
Block Time: 
4 hrs
Flight Time: 
3.8 hrs
Fuel Used: 
18,634 lb
Cleared Route: LSZS RONAG MANEG RIPUS DITON HOC NATLI LUL IXILU RESPO RLP CTL DIDOR NURMO DIPER VESAN RATUK SOVAT SANDY DET BPK POTON BEDFO EBOTO PIPIN LESTA EMBOR XAPOS BOLBI ULSAX POL NELSA RIBEL ERGAB SHAPP ABEVI INPIP UTOGU INREV ESKDO IPDOR TLA ERSON NEVIS STN BILLY BARKU RATSU VM BIRK
TRACK DATA
50,000 ft 1,000 kts
AIRCRAFT INFO AND CUMULATIVE STATS
Aircraft Type: 
B738BBJ2SSW
Registration: 
SELCAL: 
CHKP
MSN/LN: 
0 / 7
Total Flights: 
11
Total Block Time: 
53.4 hrs
Total Flight Time: 
51.4 hrs
Total Fuel Time: 
276,909 lb
DATALINK LOG | Newest first | Current as of: 2021-04-19 10:20:27
LABEL SEQUENCE CONTENT Dn/Up
5Z48151 NOV 20 01:46:17z / FLT DECK GOOD / ACF POS GOOD / GRND SERVICES GOOD / MAINT GOOD▼ Dn
QD451101:43 5.9▼ Dn
QC380501:36▼ Dn
2U1147BIRK 010000Z 09002KT CAVOK 02/M00 Q0978▲ Up
2S1241BIRK▼ Dn
5U3504BIRK 010432Z 16007KT 9999 SCT020 BKN035 TX05/3121Z TN02/0101Z 02/00 Q0978▲ Up
5S3606BIRK▼ Dn
5R3505RATSU 00:33z FL400 VM 01:17z GAKTU M0.79 10.0 -43 224/38 RW19 01:38z▼ Dn
5U5810BIRK 010347Z 16007KT 9999 SCT020 BKN035 TX05/3121Z TN02/0101Z 03/01 Q0978▲ Up
5S5930BIRK▼ Dn
UM203619CLEARED TO FL 400▲ Up
DM63609REQUEST FL 400 DUE TO A/C PERF▼ Dn
UM0 UM191259UNABLE. MAINTAIN ASSIGNED ALTITUDE▲ Up
DM61249REQUEST FL 400 DUE TO A/C PERF▼ Dn
UM0 UM190451UNABLE. MAINTAIN ASSIGNED ALTITUDE▲ Up
DM60441REQUEST FL 400 DUE TO A/C PERF▼ Dn
QB482521:46▼ Dn
QA432021:41 24.5▼ Dn
2U1743LSZS 312050Z AUTO 19002KT 9999 NCD M02/M03 Q1027▲ Up
2S1757LSZS▼ Dn
A31604NO MATCHING FLIGHT DATA AVAILABLE FROM ANSP▲ Up
B31555LSZS BIRK PFO2115 N737BA ▼ Dn
Q00949[LINK ACK]▲ Up
Q00949[LINK TEST]▼ Dn


AIRCRAFT HISTORY
FLIGHT DATE FLIGHT NO. ORIGIN DESTINATION CLEARED ROUTE BLOCK TIME FLIGHT TIME FUEL USED PILOT
2020-12-09PFO9809KVCV KLAX KVCV PMD FRASR KLAX0.9 hrs0.5 hrs3,724 lbAlex K.
2020-12-04PFO9866KMZJ KVCV KMZJ RW121.4 hrs1.4 hrs8,306 lbAlex K.
2020-11-30PFO110KPHX KMZJ KPHX STRRM KMZJ0.4 hrs0.3 hrs2,278 lbAlex K.
2020-11-25PFO9999KRIV KPHX KNTU FKN GUMBE UFFIN MEGXE HMV FARLI DREFT OLSIE WESON ZORAL QBALL WEVRA SZL JHAWK JUXON VASCO ZITIK SLN HETAB GLIDE RANSO ZAMPO COFFE NARNE WIZGE KINGO BLOOM JUKEX RADIO GOSIP ACHES BLOKE ALS MRKKO GEMKY BBRTA RESER PELDY RSK FULLY WUDIR ROUGH YIKLO TBC BISOP MEMPE TNP TRM KRIV1 hrs0.8 hrs5,981 lbAlex K.
2020-11-24PFO110KNTU KRIV KNTU FKN GUMBE UFFIN MEGXE HMV FARLI DREFT OLSIE WESON ZORAL QBALL WEVRA SZL JHAWK JUXON VASCO ZITIK SLN HETAB GLIDE RANSO ZAMPO COFFE NARNE WIZGE KINGO BLOOM JUKEX RADIO GOSIP ACHES BLOKE ALS MRKKO GEMKY BBRTA RESER PELDY RSK FULLY WUDIR ROUGH YIKLO TBC BISOP MEMPE TNP TRM KRIV5.3 hrs5.1 hrs33,498 lbAlex K.
2020-11-23PFO110LTAR KNTU LTAR OLPOT ENFOR TIMOP BENTA GURBU BUK DEREL AKCAK MAKOL NESAR RUTAR NUPVU ELRUR DEGET BEGLA DEXIT MAPOX SPY BERGI MIMVA EMLON LEGRO NALAX LIBSO ODNEK MITSO RIMTO HALIF GETNO REMSI MOLAK ETARI 5620N 5630N 5540N 5250N TUDEP ALLEX BOYCC MONTT HTO HOFFI SHLEP SARDI DUNEE SHERL PLUME MANTA DRIFT BRIGS AVALO SIE RADDS SWL DUNFE KALDA CCV KNTU13.7 hrs13.6 hrs65,943 lbAlex K.
2020-11-18PFO100KDTW LTAR KDTW PISTN AXOBU DERLO DUVEP CFVXC HOZIR TUPER KJOHN ALLEX NICSO 4850N 5140N 5330N 5320N TOBOR RILED SLANY STU LUFTU DIKAS DEZZU GAVGO KENET CPT NORRY LINDY GOXUL BIG DIKVU LAVRI EMKAD UMTUM DVR KONAN KOK SPI PELIX MATUG BOMBI TENLO DEXIT TEKNO PEXAL ASNEL OSTAL MAXOV USOVO ARTAT ERMUP ROKVA NAPIP UNVUS ASMOB RELTU APTOX TEPKI PIPUR ORMAN ERGUN TIMOP ENFOR OLPOT LTAR11 hrs10.9 hrs59,950 lbAlex K.
2020-11-01PFO526BIRK KDTW BIRK KFV 6430N 6340N 6150N SAVRY IRBIM MT YVO DUTEL OBK KPWK6.9 hrs6.6 hrs33,204 lbBig Swede
2020-10-31PFO2115LSZS BIRK LSZS RONAG MANEG RIPUS DITON HOC NATLI LUL IXILU RESPO RLP CTL DIDOR NURMO DIPER VESAN RATUK SOVAT SANDY DET BPK POTON BEDFO EBOTO PIPIN LESTA EMBOR XAPOS BOLBI ULSAX POL NELSA RIBEL ERGAB SHAPP ABEVI INPIP UTOGU INREV ESKDO IPDOR TLA ERSON NEVIS STN BILLY BARKU RATSU VM BIRK4 hrs3.8 hrs18,634 lbJames W.
2020-10-29PFO1521HECA LSZS HECA CVO MENKU NOZ OTIKO GESAD ANTAR GUDIS KPC TIPAS BINKI MADEX AKORO YNN VJOSA PAPIZ GONOT CRAYE GISAM RILIM SAL LABIN RESIA LSZS4 hrs3.7 hrs19,144 lbJames W.
2020-10-16PFO1016HKJK HECA HKJK AVONO HECA4.9 hrs4.6 hrs26,247 lbAaron Buchanan